Time;durP1;ratioP1;P1;durP2;ratioP2;P2;SDS_P1;SDS_P2;PMS_P1;PMS_P2;Temp;Humidity;BMP_temperature;BMP_pressure;BME280_temperature;BME280_humidity;BME280_pressure;Samples;Min_cycle;Max_cycle;Signal;HPM_P1;HPM_P2
2023/05/01 00:01:31;;;;;;;21.90;9.07;;;12.20;99.90;;;;;;5035156;28;20041;-86
2023/05/01 00:03:57;;;;;;;21.50;9.60;;;12.20;99.90;;;;;;5020111;28;20140;-87
2023/05/01 00:06:25;;;;;;;20.27;9.43;;;12.10;99.90;;;;;;5020220;28;20538;-87
2023/05/01 00:08:51;;;;;;;22.23;9.48;;;12.10;99.90;;;;;;5019581;28;20056;-87
2023/05/01 00:11:18;;;;;;;23.38;9.02;;;12.10;99.90;;;;;;5037110;28;20045;-86
2023/05/01 00:13:45;;;;;;;20.80;8.70;;;12.10;99.90;;;;;;5036424;28;20531;-87
2023/05/01 00:16:12;;;;;;;20.85;8.88;;;12.10;99.90;;;;;;5021016;28;20049;-86
2023/05/01 00:18:38;;;;;;;21.40;9.35;;;12.00;99.90;;;;;;5036934;28;20136;-87
2023/05/01 00:21:05;;;;;;;20.63;9.32;;;12.00;99.90;;;;;;5036060;28;20060;-87
2023/05/01 00:23:32;;;;;;;20.05;8.32;;;12.00;99.90;;;;;;5019979;28;20123;-87
2023/05/01 00:25:58;;;;;;;24.65;9.23;;;12.00;99.90;;;;;;5019860;28;20107;-87
2023/05/01 00:28:25;;;;;;;20.95;9.48;;;12.00;99.90;;;;;;5035434;28;20095;-88
2023/05/01 00:30:52;;;;;;;24.27;9.85;;;12.00;99.90;;;;;;5019458;28;20037;-86
2023/05/01 00:33:19;;;;;;;21.33;9.27;;;12.00;99.90;;;;;;5036017;28;20045;-87
2023/05/01 00:35:46;;;;;;;26.05;10.50;;;12.00;99.90;;;;;;5035160;28;20119;-86
2023/05/01 00:38:13;;;;;;;22.05;9.13;;;12.00;99.90;;;;;;5036033;28;20053;-86
2023/05/01 00:40:40;;;;;;;26.23;9.88;;;12.00;99.90;;;;;;5034622;28;20045;-86
2023/05/01 00:43:06;;;;;;;26.77;10.45;;;12.00;99.90;;;;;;5035806;28;20136;-87
2023/05/01 00:45:33;;;;;;;27.17;11.57;;;12.00;99.90;;;;;;5016854;28;20404;-88
2023/05/01 00:48:01;;;;;;;29.88;10.95;;;12.00;99.90;;;;;;5016500;28;20077;-87
2023/05/01 00:50:29;;;;;;;22.58;10.60;;;12.00;99.90;;;;;;5035416;28;20041;-87
2023/05/01 00:52:55;;;;;;;23.08;10.05;;;12.00;99.90;;;;;;5019303;28;20049;-87
2023/05/01 00:55:22;;;;;;;27.48;11.55;;;12.00;99.90;;;;;;5034705;28;20049;-86
2023/05/01 00:57:49;;;;;;;28.63;10.75;;;12.00;99.90;;;;;;5035615;28;20395;-87
2023/05/01 01:00:16;;;;;;;27.50;10.63;;;12.00;99.90;;;;;;5035047;28;20073;-86
2023/05/01 01:02:45;;;;;;;26.27;10.35;;;12.00;99.90;;;;;;5035900;28;20065;-86
2023/05/01 01:05:13;;;;;;;29.05;11.93;;;12.00;99.90;;;;;;5019316;28;20130;-87
2023/05/01 01:07:40;;;;;;;23.02;10.63;;;12.00;99.90;;;;;;5034376;28;20452;-87
2023/05/01 01:10:07;;;;;;;23.42;11.57;;;12.00;99.90;;;;;;5035321;28;20464;-87
2023/05/01 01:12:34;;;;;;;25.70;11.32;;;12.00;99.90;;;;;;5034917;28;20136;-87
2023/05/01 01:15:01;;;;;;;26.40;11.20;;;12.00;99.90;;;;;;5035030;28;20040;-87
2023/05/01 01:17:28;;;;;;;29.02;11.73;;;12.00;99.90;;;;;;5035213;28;20045;-87
2023/05/01 01:19:55;;;;;;;28.38;11.85;;;12.00;99.90;;;;;;5018855;28;20476;-87
2023/05/01 01:22:22;;;;;;;29.58;11.15;;;12.00;99.90;;;;;;5033562;28;20113;-86
2023/05/01 01:24:49;;;;;;;27.20;11.65;;;12.00;99.90;;;;;;5018805;28;20042;-87
2023/05/01 01:27:16;;;;;;;26.73;11.43;;;12.00;99.90;;;;;;5034035;28;20103;-87
2023/05/01 01:29:42;;;;;;;24.15;9.40;;;12.00;99.90;;;;;;5035797;28;20042;-86
2023/05/01 01:32:09;;;;;;;22.45;10.27;;;12.10;99.90;;;;;;5034637;28;20047;-86
2023/05/01 01:34:36;;;;;;;19.05;9.50;;;12.10;99.90;;;;;;5017521;28;20041;-86
2023/05/01 01:37:06;;;;;;;23.90;9.88;;;12.10;99.90;;;;;;5018520;28;20060;-86
2023/05/01 01:39:33;;;;;;;21.90;9.27;;;12.10;99.90;;;;;;5035049;28;20041;-87
2023/05/01 01:42:00;;;;;;;22.52;10.65;;;12.20;99.90;;;;;;5016716;28;20045;-87
2023/05/01 01:44:26;;;;;;;20.10;8.90;;;12.10;99.90;;;;;;5034759;28;20109;-87
2023/05/01 01:46:53;;;;;;;23.05;9.80;;;12.10;99.90;;;;;;5017236;28;20077;-86
2023/05/01 01:49:20;;;;;;;26.40;9.98;;;12.10;99.90;;;;;;5018319;28;20045;-87
2023/05/01 01:51:47;;;;;;;21.88;9.98;;;12.00;99.90;;;;;;5018155;28;20072;-87
2023/05/01 01:54:13;;;;;;;24.98;11.25;;;12.00;99.90;;;;;;5030484;28;20072;-86
2023/05/01 01:56:40;;;;;;;25.08;11.10;;;12.00;99.90;;;;;;4998703;28;20065;-87
2023/05/01 01:59:08;;;;;;;28.52;12.77;;;11.90;99.90;;;;;;4998600;28;20041;-87
2023/05/01 02:01:34;;;;;;;28.95;11.65;;;11.90;99.90;;;;;;4997231;28;20057;-88
2023/05/01 02:04:02;;;;;;;22.92;10.32;;;11.90;99.90;;;;;;4998704;28;20117;-87
2023/05/01 02:06:30;;;;;;;24.13;10.27;;;11.90;99.90;;;;;;4998751;28;20518;-87
2023/05/01 02:08:57;;;;;;;24.50;10.45;;;11.90;99.90;;;;;;5013574;28;20050;-87
2023/05/01 02:11:24;;;;;;;26.60;10.48;;;11.90;99.90;;;;;;5030864;28;20050;-87
2023/05/01 02:13:51;;;;;;;22.98;9.90;;;11.90;99.90;;;;;;4997253;28;20465;-87
2023/05/01 02:16:18;;;;;;;26.25;11.30;;;11.90;99.90;;;;;;4998402;28;20468;-87
2023/05/01 02:18:45;;;;;;;23.25;10.25;;;11.90;99.90;;;;;;5014711;28;20049;-87
2023/05/01 02:21:12;;;;;;;23.92;10.32;;;11.80;99.90;;;;;;4996976;28;20548;-87
2023/05/01 02:23:38;;;;;;;22.95;10.10;;;11.80;99.90;;;;;;5014509;28;20046;-87
2023/05/01 02:26:05;;;;;;;23.55;10.60;;;11.70;99.90;;;;;;4998133;28;20038;-87
2023/05/01 02:28:32;;;;;;;28.63;10.10;;;11.70;99.90;;;;;;5014315;28;20121;-87
2023/05/01 02:30:59;;;;;;;23.33;11.00;;;11.60;99.90;;;;;;5014091;28;20045;-87
2023/05/01 02:33:27;;;;;;;25.05;11.10;;;11.60;99.90;;;;;;5014705;28;20376;-87
2023/05/01 02:35:53;;;;;;;28.02;10.10;;;11.50;99.90;;;;;;5014390;28;20491;-86
2023/05/01 02:38:20;;;;;;;27.38;9.88;;;11.50;99.90;;;;;;4998227;28;20116;-86
2023/05/01 02:40:47;;;;;;;21.02;9.77;;;11.40;99.90;;;;;;4996502;28;20046;-86
2023/05/01 02:43:14;;;;;;;24.33;10.50;;;11.30;99.90;;;;;;5014351;28;20141;-87
2023/05/01 02:45:41;;;;;;;24.42;10.25;;;11.20;99.90;;;;;;4997644;28;20046;-86
2023/05/01 02:48:08;;;;;;;20.20;9.07;;;11.10;99.90;;;;;;5013290;28;20050;-86
2023/05/01 02:50:35;;;;;;;24.33;10.18;;;11.00;99.90;;;;;;4997430;28;20514;-87
2023/05/01 02:53:02;;;;;;;21.25;9.05;;;10.90;99.90;;;;;;5017299;28;20099;-86
2023/05/01 02:55:38;;;;;;;26.00;10.32;;;10.80;99.90;;;;;;5032851;28;20038;-86
2023/05/01 02:58:04;;;;;;;24.08;9.75;;;10.80;99.90;;;;;;5033782;28;20081;-86
2023/05/01 03:00:31;;;;;;;22.80;8.73;;;10.70;99.90;;;;;;5016205;28;20434;-86
2023/05/01 03:02:58;;;;;;;24.88;10.60;;;10.70;99.90;;;;;;5033616;28;20144;-86
2023/05/01 03:05:25;;;;;;;24.95;10.65;;;10.70;99.90;;;;;;5017110;28;20439;-87
2023/05/01 03:07:52;;;;;;;28.30;11.00;;;10.60;99.90;;;;;;5032660;28;20042;-86
2023/05/01 03:10:18;;;;;;;29.48;10.95;;;10.70;99.90;;;;;;5017033;28;20363;-87
2023/05/01 03:12:45;;;;;;;27.13;10.93;;;10.60;99.90;;;;;;5033676;28;20049;-86
2023/05/01 03:15:12;;;;;;;26.15;10.27;;;10.60;99.90;;;;;;5032620;28;20531;-86
2023/05/01 03:17:39;;;;;;;28.10;10.27;;;10.60;99.90;;;;;;5033456;28;20475;-87
2023/05/01 03:20:06;;;;;;;27.75;10.05;;;10.70;99.90;;;;;;5016796;28;20061;-86
2023/05/01 03:22:33;;;;;;;24.23;11.18;;;10.70;99.90;;;;;;5033255;28;20084;-86
2023/05/01 03:25:00;;;;;;;26.30;10.88;;;10.70;99.90;;;;;;5034009;28;20037;-86
2023/05/01 03:27:27;;;;;;;27.70;10.85;;;10.80;99.90;;;;;;5036282;28;20132;-86
2023/05/01 03:29:53;;;;;;;23.58;11.13;;;10.90;99.90;;;;;;5037358;28;20103;-86
2023/05/01 03:32:21;;;;;;;24.55;10.75;;;10.90;99.90;;;;;;5036730;28;20037;-86
2023/05/01 03:34:49;;;;;;;25.67;10.63;;;11.00;99.90;;;;;;5020049;28;20049;-85
2023/05/01 03:37:17;;;;;;;24.67;10.73;;;11.00;99.90;;;;;;5037280;28;20164;-86
2023/05/01 03:39:45;;;;;;;23.30;10.15;;;11.00;99.90;;;;;;5020710;28;20041;-86
2023/05/01 03:42:30;;;;;;;30.15;11.18;;;11.10;99.90;;;;;;5036571;28;20541;-86
2023/05/01 03:45:04;;;;;;;28.08;10.88;;;11.10;99.90;;;;;;5036703;28;20107;-86
2023/05/01 03:47:31;;;;;;;26.90;11.25;;;11.00;99.90;;;;;;5035878;28;20038;-86
2023/05/01 03:49:58;;;;;;;25.70;10.40;;;11.00;99.90;;;;;;5036552;28;20049;-86
2023/05/01 03:52:25;;;;;;;27.38;10.02;;;10.90;99.90;;;;;;5036842;28;20041;-86
2023/05/01 03:54:52;;;;;;;25.15;9.25;;;10.90;99.90;;;;;;5019591;28;20047;-86
2023/05/01 03:57:22;;;;;;;28.23;10.02;;;10.80;99.90;;;;;;5020802;28;20045;-86
2023/05/01 03:59:49;;;;;;;26.77;10.00;;;10.70;99.90;;;;;;5036781;28;20423;-86
2023/05/01 04:02:18;;;;;;;24.77;10.02;;;10.70;99.90;;;;;;5035271;28;20140;-85
2023/05/01 04:04:44;;;;;;;25.80;9.85;;;10.70;99.90;;;;;;5020171;28;20049;-86
2023/05/01 04:07:11;;;;;;;24.15;9.07;;;10.70;99.90;;;;;;5019140;28;20047;-86
2023/05/01 04:09:38;;;;;;;24.63;9.40;;;10.80;99.90;;;;;;5020283;28;20128;-86
2023/05/01 04:12:05;;;;;;;24.63;10.02;;;10.90;99.90;;;;;;5036103;28;20045;-86
2023/05/01 04:14:32;;;;;;;30.40;11.02;;;10.90;99.90;;;;;;5019028;28;20041;-86
2023/05/01 04:16:58;;;;;;;33.08;10.90;;;11.00;99.90;;;;;;5036443;28;20045;-86
2023/05/01 04:19:28;;;;;;;26.13;11.00;;;11.10;99.90;;;;;;5036360;28;20423;-86
2023/05/01 04:21:57;;;;;;;30.58;11.85;;;11.10;99.90;;;;;;5034975;28;20049;-86
2023/05/01 04:24:24;;;;;;;29.77;10.38;;;11.20;99.90;;;;;;5036062;28;20124;-85
2023/05/01 04:26:52;;;;;;;26.48;10.98;;;11.20;99.90;;;;;;5035170;28;20037;-86
2023/05/01 04:29:19;;;;;;;27.65;10.68;;;11.30;99.90;;;;;;5036217;28;20128;-86
2023/05/01 04:31:46;;;;;;;27.13;10.73;;;11.30;99.90;;;;;;5035666;28;20041;-86
2023/05/01 04:34:13;;;;;;;27.60;8.98;;;11.40;99.90;;;;;;5018526;28;20053;-85
2023/05/01 04:36:40;;;;;;;22.45;9.25;;;11.40;99.90;;;;;;5035928;28;20038;-85
2023/05/01 04:39:06;;;;;;;20.10;7.57;;;11.40;99.90;;;;;;5019482;28;20144;-86
2023/05/01 04:41:33;;;;;;;20.88;7.25;;;11.40;99.90;;;;;;5018779;28;20060;-86
2023/05/01 04:44:00;;;;;;;19.30;7.03;;;11.40;99.90;;;;;;5035821;28;20075;-86
2023/05/01 04:46:27;;;;;;;22.25;7.47;;;11.40;99.90;;;;;;5019296;28;20061;-86
2023/05/01 04:48:54;;;;;;;19.42;6.97;;;11.40;99.90;;;;;;5034907;28;20076;-86
2023/05/01 04:51:21;;;;;;;17.83;7.43;;;11.50;99.90;;;;;;5036431;28;20041;-86
2023/05/01 04:53:48;;;;;;;18.05;7.63;;;11.50;99.90;;;;;;5018349;28;20305;-86
2023/05/01 04:56:20;;;;;;;20.00;8.00;;;11.50;99.90;;;;;;5020459;28;20045;-86
2023/05/01 04:58:52;;;;;;;;;;;11.60;99.90;;;;;;5021189;28;20072;-86
2023/05/01 05:01:22;;;;;;;18.70;6.80;;;11.60;99.90;;;;;;5034335;28;20004;-86
2023/05/01 05:03:49;;;;;;;22.77;8.10;;;11.60;99.90;;;;;;5019341;28;20132;-85
2023/05/01 05:06:16;;;;;;;20.55;7.75;;;11.60;99.90;;;;;;5035355;28;20127;-86
2023/05/01 05:08:43;;;;;;;16.27;6.60;;;11.70;99.90;;;;;;5034512;28;20037;-86
2023/05/01 05:11:10;;;;;;;20.08;6.70;;;11.70;99.90;;;;;;5018937;28;20128;-86
2023/05/01 05:13:57;;;;;;;13.07;5.47;;;11.70;99.90;;;;;;5034408;28;20057;-86
2023/05/01 05:16:24;;;;;;;17.20;6.40;;;11.70;99.90;;;;;;5035483;28;20049;-87
2023/05/01 05:18:51;;;;;;;16.92;6.15;;;11.70;99.90;;;;;;5019609;28;20046;-87
2023/05/01 05:21:18;;;;;;;17.00;5.45;;;11.70;99.90;;;;;;5034467;28;20045;-86
2023/05/01 05:23:49;;;;;;;15.32;5.80;;;11.70;99.90;;;;;;5020295;28;20415;-86
2023/05/01 05:26:17;;;;;;;16.55;5.82;;;11.80;99.90;;;;;;5019642;28;20064;-86
2023/05/01 05:28:44;;;;;;;15.25;5.50;;;11.80;99.90;;;;;;5018705;28;20045;-86
2023/05/01 05:31:11;;;;;;;17.10;5.50;;;11.80;99.90;;;;;;5035970;28;20045;-87
2023/05/01 05:33:38;;;;;;;15.80;5.20;;;11.80;99.90;;;;;;5034985;28;20068;-86
2023/05/01 05:36:05;;;;;;;16.40;5.20;;;11.90;99.90;;;;;;5036187;28;20041;-86
2023/05/01 05:38:37;;;;;;;16.05;5.57;;;11.90;99.90;;;;;;5036114;28;20056;-87
2023/05/01 05:41:06;;;;;;;16.02;5.53;;;11.90;99.90;;;;;;5034481;28;20556;-86
2023/05/01 05:43:32;;;;;;;19.25;5.03;;;11.90;99.90;;;;;;5019289;28;20049;-86
2023/05/01 05:45:59;;;;;;;17.48;5.28;;;11.90;99.90;;;;;;5034678;28;20053;-86
2023/05/01 05:48:27;;;;;;;13.43;4.47;;;11.90;99.90;;;;;;5016956;28;20045;-86
2023/05/01 05:50:55;;;;;;;10.23;4.57;;;12.00;99.90;;;;;;5034443;28;20052;-86
2023/05/01 05:53:22;;;;;;;12.80;4.28;;;12.00;99.90;;;;;;5034536;28;20072;-86
2023/05/01 05:55:52;;;;;;;13.98;4.50;;;12.00;99.90;;;;;;5033880;28;20468;-86
2023/05/01 05:58:19;;;;;;;12.20;4.22;;;12.00;99.90;;;;;;5034539;28;20091;-86
2023/05/01 06:00:47;;;;;;;11.20;4.07;;;12.00;99.90;;;;;;5033875;28;20060;-86
2023/05/01 06:03:14;;;;;;;11.90;3.63;;;12.10;99.90;;;;;;5018243;28;20041;-85
2023/05/01 06:05:42;;;;;;;11.68;3.85;;;12.20;99.90;;;;;;5034209;28;20518;-88
2023/05/01 06:08:13;;;;;;;12.63;3.83;;;12.20;99.90;;;;;;5025038;28;20498;-86
2023/05/01 06:10:40;;;;;;;11.85;3.20;;;12.20;99.90;;;;;;5014673;28;20048;-86
2023/05/01 06:13:07;;;;;;;12.43;3.25;;;12.20;99.90;;;;;;5042616;28;20360;-88
2023/05/01 06:15:42;;;;;;;9.50;3.40;;;12.10;99.90;;;;;;5033855;28;20049;-87
2023/05/01 06:18:10;;;;;;;13.90;3.25;;;12.00;99.90;;;;;;5035140;28;20042;-88
2023/05/01 06:20:38;;;;;;;12.15;3.10;;;12.00;99.90;;;;;;5017447;28;20045;-86
2023/05/01 06:23:04;;;;;;;8.48;2.90;;;11.90;99.90;;;;;;5028487;28;20472;-87
2023/05/01 06:25:42;;;;;;;12.02;3.00;;;12.00;99.90;;;;;;5020756;28;20038;-86
2023/05/01 06:30:55;;;;;;;9.55;3.38;;;12.00;99.90;;;;;;5035301;28;20048;-86
2023/05/01 06:33:24;;;;;;;15.85;3.70;;;12.20;99.90;;;;;;5025084;28;20100;-86
2023/05/01 06:36:05;;;;;;;13.95;4.35;;;12.20;99.90;;;;;;5014835;28;20112;-86
2023/05/01 06:38:33;;;;;;;14.10;3.45;;;12.30;99.90;;;;;;5014108;28;20054;-86
2023/05/01 06:41:00;;;;;;;13.18;3.65;;;12.40;99.90;;;;;;4997263;28;20488;-86
2023/05/01 06:43:29;;;;;;;11.57;3.90;;;12.30;99.90;;;;;;5019597;28;20499;-87
2023/05/01 06:45:56;;;;;;;14.20;3.45;;;12.40;99.90;;;;;;5027758;28;20049;-87
2023/05/01 06:48:25;;;;;;;12.50;3.72;;;12.40;99.90;;;;;;5014731;28;20554;-86
2023/05/01 06:50:52;;;;;;;11.80;3.65;;;12.40;99.90;;;;;;5030219;28;20030;-85
2023/05/01 06:53:18;;;;;;;11.20;3.13;;;12.60;99.90;;;;;;5015172;28;20044;-88
2023/05/01 06:55:45;;;;;;;12.50;3.60;;;12.70;99.90;;;;;;5014878;28;20038;-87
2023/05/01 06:58:13;;;;;;;13.63;3.33;;;12.80;99.90;;;;;;5015954;28;20041;-86
2023/05/01 07:00:49;;;;;;;13.95;3.45;;;12.90;99.90;;;;;;5017402;28;20518;-87
2023/05/01 07:03:16;;;;;;;15.90;3.28;;;13.00;99.90;;;;;;5018751;28;20128;-88
2023/05/01 07:05:43;;;;;;;10.60;3.50;;;13.00;99.90;;;;;;5019748;28;20096;-86
2023/05/01 07:08:11;;;;;;;10.38;2.80;;;13.10;99.90;;;;;;5001055;28;20069;-86
2023/05/01 07:10:37;;;;;;;13.63;3.47;;;13.10;99.90;;;;;;5017946;28;20045;-87
2023/05/01 07:13:08;;;;;;;9.45;3.10;;;13.10;99.90;;;;;;5018206;28;20057;-87
2023/05/01 07:15:34;;;;;;;13.18;3.65;;;13.20;99.90;;;;;;5000614;28;20045;-86
2023/05/01 07:18:01;;;;;;;13.93;3.10;;;13.20;99.90;;;;;;5018228;28;20416;-87
2023/05/01 07:20:29;;;;;;;9.75;3.38;;;13.20;99.90;;;;;;5001139;28;20449;-86
2023/05/01 07:22:56;;;;;;;13.32;3.63;;;13.30;99.90;;;;;;5018639;28;20511;-84
2023/05/01 07:25:23;;;;;;;14.02;3.50;;;13.40;99.90;;;;;;5017551;28;20457;-87
2023/05/01 07:27:50;;;;;;;14.07;2.80;;;13.40;99.90;;;;;;5016651;28;20042;-86
2023/05/01 07:30:17;;;;;;;13.13;3.20;;;13.30;99.90;;;;;;5017236;28;20041;-86
2023/05/01 07:32:43;;;;;;;12.38;3.50;;;13.40;99.90;;;;;;5026810;28;20132;-90
2023/05/01 07:35:12;;;;;;;11.80;2.85;;;13.50;99.90;;;;;;5021337;28;20049;-91
2023/05/01 07:37:41;;;;;;;14.70;3.25;;;13.50;99.90;;;;;;5027736;28;20059;-91
2023/05/01 07:40:08;;;;;;;10.75;3.42;;;13.50;99.90;;;;;;5041327;28;20369;-86
2023/05/01 07:42:35;;;;;;;13.10;3.33;;;13.40;99.90;;;;;;5040444;28;20152;-87
2023/05/01 07:45:02;;;;;;;11.88;3.50;;;13.40;99.90;;;;;;5056947;28;20072;-88
2023/05/01 07:47:28;;;;;;;11.70;3.00;;;13.30;99.90;;;;;;5028045;28;22423;-87
2023/05/01 07:49:56;;;;;;;10.18;3.60;;;13.40;99.90;;;;;;5016455;28;20052;-88
2023/05/01 07:52:23;;;;;;;11.75;3.83;;;13.40;99.90;;;;;;5005361;28;20041;-86
2023/05/01 07:54:49;;;;;;;11.27;3.45;;;13.40;99.90;;;;;;5035668;28;20151;-88
2023/05/01 07:57:16;;;;;;;11.98;3.00;;;13.40;99.90;;;;;;5037109;28;20049;-86
2023/05/01 07:59:43;;;;;;;12.85;3.30;;;13.40;99.90;;;;;;5020349;28;20069;-87
2023/05/01 08:02:10;;;;;;;13.57;3.38;;;13.40;99.90;;;;;;5035227;28;20057;-86
2023/05/01 08:04:37;;;;;;;10.98;3.25;;;13.30;99.90;;;;;;5020734;28;20045;-86
2023/05/01 08:07:03;;;;;;;12.70;3.50;;;13.40;99.90;;;;;;5036107;28;20076;-87
2023/05/01 08:09:30;;;;;;;11.50;3.38;;;13.50;99.90;;;;;;5036330;28;20379;-87
2023/05/01 08:11:57;;;;;;;10.05;3.20;;;13.50;99.90;;;;;;5037238;28;20041;-87
2023/05/01 08:14:24;;;;;;;13.40;3.40;;;13.60;99.90;;;;;;5036863;28;20041;-87
2023/05/01 08:16:54;;;;;;;10.32;3.10;;;13.50;99.90;;;;;;5036694;28;20053;-87
2023/05/01 08:19:21;;;;;;;13.07;4.03;;;13.70;99.90;;;;;;5020434;28;20111;-88
2023/05/01 08:21:47;;;;;;;11.77;3.15;;;13.50;99.90;;;;;;5035719;28;20055;-87
2023/05/01 08:24:14;;;;;;;12.63;3.67;;;13.50;99.90;;;;;;5019922;28;20491;-88
2023/05/01 08:26:40;;;;;;;12.02;4.05;;;13.50;99.90;;;;;;5020375;28;20475;-86
2023/05/01 08:29:07;;;;;;;17.10;3.95;;;13.50;99.90;;;;;;5019342;28;20456;-87
2023/05/01 08:31:36;;;;;;;11.10;3.20;;;13.60;99.90;;;;;;5019614;28;20056;-88
2023/05/01 08:34:03;;;;;;;14.75;3.80;;;13.50;99.90;;;;;;5019359;28;20042;-87
2023/05/01 08:36:31;;;;;;;11.77;3.05;;;13.50;99.90;;;;;;5036236;28;20445;-86
2023/05/01 08:38:58;;;;;;;14.82;3.63;;;13.50;99.90;;;;;;5035961;28;20045;-87
2023/05/01 08:41:25;;;;;;;9.73;3.42;;;13.50;99.90;;;;;;5034836;28;20428;-86
2023/05/01 08:43:51;;;;;;;13.32;3.30;;;13.60;99.90;;;;;;5019729;28;20148;-86
2023/05/01 08:46:21;;;;;;;12.55;3.33;;;13.60;99.90;;;;;;5014126;28;20057;-88
2023/05/01 08:48:48;;;;;;;11.65;3.50;;;13.60;99.90;;;;;;5034430;28;20045;-87
2023/05/01 08:51:16;;;;;;;13.70;3.75;;;13.70;99.90;;;;;;5019095;28;20045;-88
2023/05/01 08:53:45;;;;;;;18.48;3.83;;;13.90;99.90;;;;;;5018233;28;20042;-87
2023/05/01 08:56:12;;;;;;;12.55;3.38;;;14.00;99.90;;;;;;5000617;28;20461;-86
2023/05/01 08:58:39;;;;;;;11.93;3.80;;;14.10;99.90;;;;;;5016343;28;20048;-87
2023/05/01 09:01:06;;;;;;;11.27;3.30;;;14.30;99.90;;;;;;5014289;28;20086;-87
2023/05/01 09:03:32;;;;;;;14.10;3.90;;;14.50;99.90;;;;;;5016043;28;20493;-86
2023/05/01 09:05:59;;;;;;;14.93;3.40;;;14.60;99.90;;;;;;5015791;28;20045;-87
2023/05/01 09:08:26;;;;;;;13.02;3.60;;;14.70;99.90;;;;;;4998538;28;20052;-86
2023/05/01 09:10:53;;;;;;;12.35;2.80;;;15.00;99.90;;;;;;4999767;28;20052;-88
2023/05/01 09:13:20;;;;;;;12.30;2.60;;;15.20;99.90;;;;;;5016250;28;20141;-86
2023/05/01 09:15:46;;;;;;;16.33;3.53;;;15.40;99.90;;;;;;4998140;28;20042;-87
2023/05/01 09:18:13;;;;;;;12.23;3.08;;;15.70;99.90;;;;;;5015849;28;20146;-88
2023/05/01 09:20:46;;;;;;;8.90;2.67;;;15.80;99.90;;;;;;5015330;28;20052;-87
2023/05/01 09:23:18;;;;;;;9.60;2.88;;;15.80;99.90;;;;;;5015557;28;20148;-87
2023/05/01 09:25:45;;;;;;;11.95;3.38;;;15.70;99.90;;;;;;5016421;28;20046;-88
2023/05/01 09:28:12;;;;;;;10.48;2.95;;;15.50;99.90;;;;;;5014791;28;20038;-87
2023/05/01 09:30:38;;;;;;;10.45;3.10;;;15.50;99.90;;;;;;5015286;28;20143;-87
2023/05/01 09:33:05;;;;;;;12.65;3.22;;;15.70;99.90;;;;;;4999884;28;20042;-88
2023/05/01 09:35:32;;;;;;;9.02;2.80;;;15.80;99.90;;;;;;5016389;28;20052;-87
2023/05/01 09:37:59;;;;;;;16.20;4.10;;;16.00;99.90;;;;;;5017807;28;20065;-88
2023/05/01 09:40:26;;;;;;;11.80;3.10;;;16.40;99.90;;;;;;5002349;28;20041;-88
2023/05/01 09:42:54;;;;;;;13.68;3.05;;;16.80;99.90;;;;;;5001530;28;20065;-87
2023/05/01 09:45:22;;;;;;;12.98;3.08;;;17.10;99.90;;;;;;5015824;28;20042;-87
2023/05/01 09:47:49;;;;;;;12.02;3.05;;;17.30;99.90;;;;;;5000094;28;20046;-87
2023/05/01 09:50:15;;;;;;;8.45;2.90;;;17.50;99.90;;;;;;5016804;28;20052;-87
2023/05/01 09:52:42;;;;;;;8.68;3.17;;;17.30;99.90;;;;;;5008121;28;20052;-88
2023/05/01 09:55:09;;;;;;;12.20;3.03;;;17.00;99.90;;;;;;5019070;28;20049;-87
2023/05/01 09:57:37;;;;;;;11.70;3.40;;;16.80;99.90;;;;;;5036681;28;20061;-87
2023/05/01 10:00:07;;;;;;;8.13;2.80;;;16.60;99.90;;;;;;5019518;28;20077;-88
2023/05/01 10:02:34;;;;;;;8.67;3.00;;;16.60;99.90;;;;;;5036900;28;20460;-86
2023/05/01 10:05:02;;;;;;;11.32;2.72;;;16.30;99.90;;;;;;5037194;28;20041;-87
2023/05/01 10:07:29;;;;;;;10.00;3.10;;;16.40;99.90;;;;;;5018254;28;20069;-88
2023/05/01 10:09:55;;;;;;;10.23;2.97;;;16.30;99.90;;;;;;5020064;28;20041;-87
2023/05/01 10:12:26;;;;;;;14.52;3.60;;;16.30;99.90;;;;;;5019141;28;20048;-88
2023/05/01 10:14:53;;;;;;;12.95;2.80;;;16.20;99.90;;;;;;5034131;28;20115;-86
2023/05/01 10:17:20;;;;;;;10.68;3.30;;;16.10;99.90;;;;;;5034662;28;20084;-87
2023/05/01 10:19:47;;;;;;;15.18;3.67;;;16.30;99.90;;;;;;5018227;28;20132;-89
2023/05/01 10:22:14;;;;;;;12.07;3.13;;;16.40;99.90;;;;;;5017280;28;20045;-87
2023/05/01 10:24:40;;;;;;;12.13;3.30;;;16.50;99.90;;;;;;5018727;28;20061;-87
2023/05/01 10:27:09;;;;;;;10.95;3.20;;;16.40;99.90;;;;;;5017493;28;20748;-86
2023/05/01 10:29:35;;;;;;;10.43;3.42;;;16.40;99.90;;;;;;5017827;28;20144;-88
2023/05/01 10:32:02;;;;;;;10.68;3.30;;;16.30;99.90;;;;;;5034291;28;20045;-87
2023/05/01 10:34:29;;;;;;;12.98;3.78;;;16.30;99.90;;;;;;5033344;28;20053;-87
2023/05/01 10:36:55;;;;;;;7.40;2.95;;;16.30;99.90;;;;;;5017315;28;20053;-87
2023/05/01 10:39:22;;;;;;;10.85;3.28;;;16.40;99.90;;;;;;5017379;28;20041;-86
2023/05/01 10:41:49;;;;;;;10.35;3.08;;;16.30;99.90;;;;;;5033329;28;20059;-87
2023/05/01 10:44:15;;;;;;;10.55;2.97;;;16.40;99.90;;;;;;5017253;28;20049;-87
2023/05/01 10:46:43;;;;;;;11.60;3.13;;;16.70;99.90;;;;;;5033580;28;20061;-87
2023/05/01 10:49:11;;;;;;;11.07;3.35;;;16.70;99.90;;;;;;5016415;28;20046;-88
2023/05/01 10:51:38;;;;;;;12.40;3.20;;;16.70;99.90;;;;;;5033826;28;20052;-88
2023/05/01 10:54:04;;;;;;;10.82;3.00;;;17.00;99.90;;;;;;5032871;28;20068;-87
2023/05/01 10:56:31;;;;;;;9.98;2.88;;;17.20;99.90;;;;;;5034266;28;20045;-88
2023/05/01 10:58:58;;;;;;;10.07;3.10;;;17.30;99.90;;;;;;5017055;28;20049;-89
2023/05/01 11:01:25;;;;;;;9.90;2.95;;;17.40;99.90;;;;;;5032619;28;20049;-88
2023/05/01 11:03:51;;;;;;;9.88;2.70;;;17.60;99.90;;;;;;5017395;28;20049;-87
2023/05/01 11:06:18;;;;;;;9.30;2.88;;;17.90;99.90;;;;;;5033243;28;20060;-87
2023/05/01 11:08:46;;;;;;;9.55;3.17;;;17.90;99.90;;;;;;5032809;28;20056;-88
2023/05/01 11:11:14;;;;;;;10.73;3.13;;;18.10;99.90;;;;;;5017377;28;20045;-89
2023/05/01 11:13:40;;;;;;;9.13;2.95;;;18.20;99.90;;;;;;5015916;28;20046;-86
2023/05/01 11:16:07;;;;;;;8.60;2.58;;;18.40;99.90;;;;;;5033986;28;20046;-87
2023/05/01 11:18:34;;;;;;;9.40;2.30;;;18.80;99.90;;;;;;5033714;28;20041;-87
2023/05/01 11:21:01;;;;;;;10.07;2.60;;;19.30;99.90;;;;;;5015975;28;20052;-88
2023/05/01 11:23:27;;;;;;;7.15;2.45;;;19.50;99.90;;;;;;5033326;28;20029;-90
2023/05/01 11:25:54;;;;;;;8.13;2.53;;;20.10;99.90;;;;;;5033538;28;20144;-88
2023/05/01 11:28:22;;;;;;;7.88;2.72;;;20.60;99.90;;;;;;5032412;28;20053;-88
2023/05/01 11:30:49;;;;;;;10.32;2.45;;;20.80;99.90;;;;;;5017105;28;20053;-86
2023/05/01 11:33:15;;;;;;;10.32;2.53;;;20.90;99.90;;;;;;5033867;28;20038;-92
2023/05/01 11:35:42;;;;;;;8.90;2.40;;;20.70;99.90;;;;;;5016387;28;20042;-87
2023/05/01 11:38:09;;;;;;;10.43;2.60;;;20.80;99.90;;;;;;5033223;28;20045;-88
2023/05/01 11:40:36;;;;;;;7.32;2.22;;;20.70;99.90;;;;;;5016034;28;20056;-87
2023/05/01 11:43:03;;;;;;;8.02;2.22;;;21.40;99.90;;;;;;5016813;28;20064;-89
2023/05/01 11:45:30;;;;;;;8.10;2.20;;;21.50;99.90;;;;;;5032804;28;20092;-89
2023/05/01 11:50:45;;;;;;;8.05;2.70;;;22.70;99.90;;;;;;5038820;28;20043;-86
2023/05/01 11:53:11;;;;;;;8.38;3.17;;;23.60;99.90;;;;;;5015245;28;20456;-87
2023/05/01 11:55:38;;;;;;;7.95;2.40;;;23.40;99.90;;;;;;5019781;28;20384;-86
2023/05/01 11:58:05;;;;;;;6.32;2.25;;;23.00;99.90;;;;;;5003295;28;20104;-89
2023/05/01 12:00:32;;;;;;;6.55;2.22;;;23.20;98.70;;;;;;5015413;28;20461;-86
2023/05/01 12:02:59;;;;;;;6.22;2.20;;;22.70;98.00;;;;;;5016975;28;20120;-87
2023/05/01 12:05:27;;;;;;;4.97;1.98;;;22.40;98.50;;;;;;5000090;28;20049;-87
2023/05/01 12:07:53;;;;;;;5.55;1.70;;;22.10;98.30;;;;;;5013269;28;20132;-87
2023/05/01 12:10:20;;;;;;;6.22;2.20;;;21.60;97.20;;;;;;5036670;28;20148;-86
2023/05/01 12:12:50;;;;;;;6.53;1.98;;;21.30;98.80;;;;;;5020472;28;20357;-86
2023/05/01 12:15:17;;;;;;;6.63;2.78;;;21.00;98.50;;;;;;5036134;28;20468;-89
2023/05/01 12:20:29;;;;;;;7.53;1.90;;;20.60;99.90;;;;;;5016889;28;20049;-87
2023/05/01 12:22:56;;;;;;;6.47;2.17;;;20.60;99.90;;;;;;5014479;28;20050;-89
2023/05/01 12:25:22;;;;;;;6.68;1.90;;;20.50;99.90;;;;;;5037619;28;20065;-87
2023/05/01 12:27:49;;;;;;;7.85;1.90;;;20.40;99.90;;;;;;5019042;28;20037;-88
2023/05/01 12:30:16;;;;;;;6.43;2.00;;;20.40;99.90;;;;;;5020378;28;20524;-87
2023/05/01 12:32:42;;;;;;;6.95;2.33;;;20.30;99.90;;;;;;5026733;28;20049;-89
2023/05/01 12:35:09;;;;;;;5.53;2.00;;;20.00;99.90;;;;;;5015845;28;20053;-87
2023/05/01 12:37:37;;;;;;;6.18;2.00;;;19.80;99.90;;;;;;5016338;28;20050;-88
2023/05/01 12:40:04;;;;;;;7.55;2.20;;;19.80;99.90;;;;;;4999616;28;20068;-87
2023/05/01 12:42:31;;;;;;;6.75;2.05;;;19.80;99.90;;;;;;5016603;28;20073;-88
2023/05/01 12:44:58;;;;;;;5.93;2.05;;;19.80;99.90;;;;;;5031156;28;20099;-86